sensor_id;sensor_type;location;lat;lon;timestamp;temperature;humidity
68813;DHT22;55808;48.112;11.552;2022-09-09T00:05:09;15.20;99.90
68813;DHT22;55808;48.112;11.552;2022-09-09T00:07:43;15.20;99.90
68813;DHT22;55808;48.112;11.552;2022-09-09T00:10:26;15.20;99.90
68813;DHT22;55808;48.112;11.552;2022-09-09T00:16:07;15.30;99.90
68813;DHT22;55808;48.112;11.552;2022-09-09T00:18:44;15.20;99.90
68813;DHT22;55808;48.112;11.552;2022-09-09T00:21:14;15.30;99.90
68813;DHT22;55808;48.112;11.552;2022-09-09T00:23:53;15.20;99.90
68813;DHT22;55808;48.112;11.552;2022-09-09T00:31:37;15.20;99.90
68813;DHT22;55808;48.112;11.552;2022-09-09T00:34:13;15.30;99.90
68813;DHT22;55808;48.112;11.552;2022-09-09T00:36:41;15.40;99.90
68813;DHT22;55808;48.112;11.552;2022-09-09T00:39:29;15.40;99.90
68813;DHT22;55808;48.112;11.552;2022-09-09T00:42:15;15.40;99.90
68813;DHT22;55808;48.112;11.552;2022-09-09T00:44:59;15.30;99.90
68813;DHT22;55808;48.112;11.552;2022-09-09T00:47:40;15.30;99.90
68813;DHT22;55808;48.112;11.552;2022-09-09T00:50:34;15.20;99.90
68813;DHT22;55808;48.112;11.552;2022-09-09T00:53:24;15.10;99.90
68813;DHT22;55808;48.112;11.552;2022-09-09T00:56:13;15.10;99.90
68813;DHT22;55808;48.112;11.552;2022-09-09T00:58:43;15.10;99.90
68813;DHT22;55808;48.112;11.552;2022-09-09T01:01:16;15.20;99.90
68813;DHT22;55808;48.112;11.552;2022-09-09T01:03:54;15.20;99.90
68813;DHT22;55808;48.112;11.552;2022-09-09T01:06:37;15.20;99.90
68813;DHT22;55808;48.112;11.552;2022-09-09T01:09:45;15.20;99.90
68813;DHT22;55808;48.112;11.552;2022-09-09T01:12:25;15.30;99.90
68813;DHT22;55808;48.112;11.552;2022-09-09T01:15:09;15.30;99.90
68813;DHT22;55808;48.112;11.552;2022-09-09T01:20:21;15.20;99.90
68813;DHT22;55808;48.112;11.552;2022-09-09T01:23:04;15.30;99.90
68813;DHT22;55808;48.112;11.552;2022-09-09T01:28:14;15.40;99.90
68813;DHT22;55808;48.112;11.552;2022-09-09T01:30:41;15.40;99.90
68813;DHT22;55808;48.112;11.552;2022-09-09T01:33:14;15.30;99.90
68813;DHT22;55808;48.112;11.552;2022-09-09T01:38:17;15.20;99.90
68813;DHT22;55808;48.112;11.552;2022-09-09T01:40:43;15.30;99.90
68813;DHT22;55808;48.112;11.552;2022-09-09T01:43:10;15.30;99.90
68813;DHT22;55808;48.112;11.552;2022-09-09T01:45:37;15.20;99.90
68813;DHT22;55808;48.112;11.552;2022-09-09T01:48:03;15.20;99.90
68813;DHT22;55808;48.112;11.552;2022-09-09T01:50:29;15.20;99.90
68813;DHT22;55808;48.112;11.552;2022-09-09T01:52:58;15.20;99.90
68813;DHT22;55808;48.112;11.552;2022-09-09T01:55:30;15.10;99.90
68813;DHT22;55808;48.112;11.552;2022-09-09T02:00:45;15.20;99.90
68813;DHT22;55808;48.112;11.552;2022-09-09T02:03:26;15.20;99.90
68813;DHT22;55808;48.112;11.552;2022-09-09T02:06:35;15.20;99.90
68813;DHT22;55808;48.112;11.552;2022-09-09T02:09:05;15.20;99.90
68813;DHT22;55808;48.112;11.552;2022-09-09T02:11:32;15.10;99.90
68813;DHT22;55808;48.112;11.552;2022-09-09T02:14:08;15.10;99.90
68813;DHT22;55808;48.112;11.552;2022-09-09T02:16:42;15.10;99.90
68813;DHT22;55808;48.112;11.552;2022-09-09T02:19:21;15.00;99.90
68813;DHT22;55808;48.112;11.552;2022-09-09T02:21:54;15.00;99.90
68813;DHT22;55808;48.112;11.552;2022-09-09T02:24:21;15.00;99.90
68813;DHT22;55808;48.112;11.552;2022-09-09T02:26:50;15.00;99.90
68813;DHT22;55808;48.112;11.552;2022-09-09T02:29:25;15.00;99.90
68813;DHT22;55808;48.112;11.552;2022-09-09T02:31:53;14.90;99.90
68813;DHT22;55808;48.112;11.552;2022-09-09T02:34:23;15.00;99.90
68813;DHT22;55808;48.112;11.552;2022-09-09T02:36:51;15.00;99.90
68813;DHT22;55808;48.112;11.552;2022-09-09T02:39:18;15.00;99.90
68813;DHT22;55808;48.112;11.552;2022-09-09T02:41:44;15.10;99.90
68813;DHT22;55808;48.112;11.552;2022-09-09T02:44:11;15.10;99.90
68813;DHT22;55808;48.112;11.552;2022-09-09T02:47:04;15.10;99.90
68813;DHT22;55808;48.112;11.552;2022-09-09T02:55:48;15.00;99.90
68813;DHT22;55808;48.112;11.552;2022-09-09T02:58:17;15.00;99.90
68813;DHT22;55808;48.112;11.552;2022-09-09T03:00:47;15.10;99.90
68813;DHT22;55808;48.112;11.552;2022-09-09T03:03:14;15.10;99.90
68813;DHT22;55808;48.112;11.552;2022-09-09T03:05:41;15.10;99.90
68813;DHT22;55808;48.112;11.552;2022-09-09T03:08:07;15.10;99.90
68813;DHT22;55808;48.112;11.552;2022-09-09T03:10:33;15.10;99.90
68813;DHT22;55808;48.112;11.552;2022-09-09T03:13:00;15.00;99.90
68813;DHT22;55808;48.112;11.552;2022-09-09T03:15:26;15.00;99.90
68813;DHT22;55808;48.112;11.552;2022-09-09T03:17:56;15.00;99.90
68813;DHT22;55808;48.112;11.552;2022-09-09T03:20:24;14.90;99.90
68813;DHT22;55808;48.112;11.552;2022-09-09T03:22:52;14.90;99.90
68813;DHT22;55808;48.112;11.552;2022-09-09T03:25:18;14.80;99.90
68813;DHT22;55808;48.112;11.552;2022-09-09T03:27:43;14.80;99.90
68813;DHT22;55808;48.112;11.552;2022-09-09T03:30:09;14.70;99.90
68813;DHT22;55808;48.112;11.552;2022-09-09T03:32:36;14.60;99.90
68813;DHT22;55808;48.112;11.552;2022-09-09T03:35:02;14.60;99.90
68813;DHT22;55808;48.112;11.552;2022-09-09T03:37:28;14.60;99.90
68813;DHT22;55808;48.112;11.552;2022-09-09T03:39:54;14.60;99.90
68813;DHT22;55808;48.112;11.552;2022-09-09T03:42:20;14.60;99.90
68813;DHT22;55808;48.112;11.552;2022-09-09T03:44:46;14.50;99.90
68813;DHT22;55808;48.112;11.552;2022-09-09T03:47:17;14.40;99.90
68813;DHT22;55808;48.112;11.552;2022-09-09T03:49:43;14.40;99.90
68813;DHT22;55808;48.112;11.552;2022-09-09T03:52:09;14.40;99.90
68813;DHT22;55808;48.112;11.552;2022-09-09T03:54:35;14.50;99.90
68813;DHT22;55808;48.112;11.552;2022-09-09T03:57:01;14.60;99.90
68813;DHT22;55808;48.112;11.552;2022-09-09T03:59:27;14.60;99.90
68813;DHT22;55808;48.112;11.552;2022-09-09T04:01:57;14.70;99.90
68813;DHT22;55808;48.112;11.552;2022-09-09T04:04:24;14.70;99.90
68813;DHT22;55808;48.112;11.552;2022-09-09T04:06:52;14.80;99.90
68813;DHT22;55808;48.112;11.552;2022-09-09T04:09:18;14.80;99.90
68813;DHT22;55808;48.112;11.552;2022-09-09T04:11:44;14.80;99.90
68813;DHT22;55808;48.112;11.552;2022-09-09T04:14:10;14.80;99.90
68813;DHT22;55808;48.112;11.552;2022-09-09T04:16:36;14.80;99.90
68813;DHT22;55808;48.112;11.552;2022-09-09T04:19:03;14.80;99.90
68813;DHT22;55808;48.112;11.552;2022-09-09T04:21:33;14.70;99.90
68813;DHT22;55808;48.112;11.552;2022-09-09T04:23:58;14.70;99.90
68813;DHT22;55808;48.112;11.552;2022-09-09T04:26:24;14.60;99.90
68813;DHT22;55808;48.112;11.552;2022-09-09T04:28:50;14.60;99.90
68813;DHT22;55808;48.112;11.552;2022-09-09T04:31:22;14.50;99.90
68813;DHT22;55808;48.112;11.552;2022-09-09T04:33:49;14.50;99.90
68813;DHT22;55808;48.112;11.552;2022-09-09T04:36:15;14.50;99.90
68813;DHT22;55808;48.112;11.552;2022-09-09T04:38:41;14.40;99.90
68813;DHT22;55808;48.112;11.552;2022-09-09T04:41:07;14.40;99.90
68813;DHT22;55808;48.112;11.552;2022-09-09T04:43:33;14.30;99.90
68813;DHT22;55808;48.112;11.552;2022-09-09T04:46:01;14.30;99.90
68813;DHT22;55808;48.112;11.552;2022-09-09T04:48:26;14.30;99.90
68813;DHT22;55808;48.112;11.552;2022-09-09T04:51:03;14.30;99.90
68813;DHT22;55808;48.112;11.552;2022-09-09T04:53:30;14.30;99.90
68813;DHT22;55808;48.112;11.552;2022-09-09T04:56:09;14.30;99.90
68813;DHT22;55808;48.112;11.552;2022-09-09T04:58:39;14.40;99.90
68813;DHT22;55808;48.112;11.552;2022-09-09T05:01:09;14.40;99.90
68813;DHT22;55808;48.112;11.552;2022-09-09T05:03:35;14.40;99.90
68813;DHT22;55808;48.112;11.552;2022-09-09T05:06:10;14.30;99.90
68813;DHT22;55808;48.112;11.552;2022-09-09T05:08:40;14.30;99.90
68813;DHT22;55808;48.112;11.552;2022-09-09T05:11:23;14.20;99.90
68813;DHT22;55808;48.112;11.552;2022-09-09T05:13:50;14.30;99.90
68813;DHT22;55808;48.112;11.552;2022-09-09T05:16:16;14.40;99.90
68813;DHT22;55808;48.112;11.552;2022-09-09T05:18:42;14.40;99.90
68813;DHT22;55808;48.112;11.552;2022-09-09T05:21:08;14.40;99.90
68813;DHT22;55808;48.112;11.552;2022-09-09T05:23:34;14.30;99.90
68813;DHT22;55808;48.112;11.552;2022-09-09T05:26:01;14.30;99.90
68813;DHT22;55808;48.112;11.552;2022-09-09T05:28:27;14.20;99.90
68813;DHT22;55808;48.112;11.552;2022-09-09T05:31:00;14.20;99.90
68813;DHT22;55808;48.112;11.552;2022-09-09T05:33:29;14.30;99.90
68813;DHT22;55808;48.112;11.552;2022-09-09T05:35:59;14.30;99.90
68813;DHT22;55808;48.112;11.552;2022-09-09T05:38:25;14.30;99.90
68813;DHT22;55808;48.112;11.552;2022-09-09T05:40:51;14.30;99.90
68813;DHT22;55808;48.112;11.552;2022-09-09T05:43:18;14.40;99.90
68813;DHT22;55808;48.112;11.552;2022-09-09T05:45:46;14.40;99.90
68813;DHT22;55808;48.112;11.552;2022-09-09T05:48:16;14.40;99.90
68813;DHT22;55808;48.112;11.552;2022-09-09T05:50:42;14.50;99.90
68813;DHT22;55808;48.112;11.552;2022-09-09T05:53:09;14.50;99.90
68813;DHT22;55808;48.112;11.552;2022-09-09T05:55:36;14.50;99.90
68813;DHT22;55808;48.112;11.552;2022-09-09T05:58:02;14.60;99.90
68813;DHT22;55808;48.112;11.552;2022-09-09T06:00:28;14.70;99.90
68813;DHT22;55808;48.112;11.552;2022-09-09T06:02:54;14.70;99.90
68813;DHT22;55808;48.112;11.552;2022-09-09T06:05:20;14.70;99.90
68813;DHT22;55808;48.112;11.552;2022-09-09T06:07:48;14.80;99.90
68813;DHT22;55808;48.112;11.552;2022-09-09T06:10:13;14.80;99.90
68813;DHT22;55808;48.112;11.552;2022-09-09T06:12:39;14.90;99.90
68813;DHT22;55808;48.112;11.552;2022-09-09T06:15:05;14.90;99.90
68813;DHT22;55808;48.112;11.552;2022-09-09T06:17:31;15.00;99.90
68813;DHT22;55808;48.112;11.552;2022-09-09T06:19:57;15.00;99.90
68813;DHT22;55808;48.112;11.552;2022-09-09T06:22:23;15.00;99.90
68813;DHT22;55808;48.112;11.552;2022-09-09T06:24:48;15.00;99.90
68813;DHT22;55808;48.112;11.552;2022-09-09T06:27:14;15.00;99.90
68813;DHT22;55808;48.112;11.552;2022-09-09T06:29:39;15.00;99.90
68813;DHT22;55808;48.112;11.552;2022-09-09T06:32:05;15.10;99.90
68813;DHT22;55808;48.112;11.552;2022-09-09T06:34:33;15.10;99.90
68813;DHT22;55808;48.112;11.552;2022-09-09T06:37:00;15.10;99.90
68813;DHT22;55808;48.112;11.552;2022-09-09T06:39:26;15.20;99.90
68813;DHT22;55808;48.112;11.552;2022-09-09T06:41:52;15.30;99.90
68813;DHT22;55808;48.112;11.552;2022-09-09T06:44:19;15.40;99.90
68813;DHT22;55808;48.112;11.552;2022-09-09T06:46:44;15.40;99.90
68813;DHT22;55808;48.112;11.552;2022-09-09T06:49:13;15.40;99.90
68813;DHT22;55808;48.112;11.552;2022-09-09T06:51:40;15.50;99.90
68813;DHT22;55808;48.112;11.552;2022-09-09T06:54:08;15.50;99.90
68813;DHT22;55808;48.112;11.552;2022-09-09T06:56:36;15.50;99.90
68813;DHT22;55808;48.112;11.552;2022-09-09T06:59:04;15.60;99.90
68813;DHT22;55808;48.112;11.552;2022-09-09T07:01:34;15.60;99.90
68813;DHT22;55808;48.112;11.552;2022-09-09T07:04:01;15.60;99.90
68813;DHT22;55808;48.112;11.552;2022-09-09T07:06:30;15.60;99.90
68813;DHT22;55808;48.112;11.552;2022-09-09T07:09:15;15.60;99.90
68813;DHT22;55808;48.112;11.552;2022-09-09T07:11:51;15.60;99.90
68813;DHT22;55808;48.112;11.552;2022-09-09T07:14:18;15.60;99.90
68813;DHT22;55808;48.112;11.552;2022-09-09T07:16:45;15.60;99.90
68813;DHT22;55808;48.112;11.552;2022-09-09T07:19:13;15.50;99.90
68813;DHT22;55808;48.112;11.552;2022-09-09T07:21:40;15.50;99.90
68813;DHT22;55808;48.112;11.552;2022-09-09T07:24:06;15.60;99.90
68813;DHT22;55808;48.112;11.552;2022-09-09T07:26:37;15.70;99.90
68813;DHT22;55808;48.112;11.552;2022-09-09T07:29:03;15.70;99.90
68813;DHT22;55808;48.112;11.552;2022-09-09T07:31:35;15.80;99.90
68813;DHT22;55808;48.112;11.552;2022-09-09T07:34:02;15.80;99.90
68813;DHT22;55808;48.112;11.552;2022-09-09T07:36:32;15.90;99.90
68813;DHT22;55808;48.112;11.552;2022-09-09T07:39:07;16.00;99.90
68813;DHT22;55808;48.112;11.552;2022-09-09T07:41:34;16.10;99.90
68813;DHT22;55808;48.112;11.552;2022-09-09T07:44:18;16.20;99.90
68813;DHT22;55808;48.112;11.552;2022-09-09T07:46:44;16.30;99.90
68813;DHT22;55808;48.112;11.552;2022-09-09T07:49:11;16.30;99.90
68813;DHT22;55808;48.112;11.552;2022-09-09T07:51:42;16.40;99.90
68813;DHT22;55808;48.112;11.552;2022-09-09T07:54:11;16.40;99.90
68813;DHT22;55808;48.112;11.552;2022-09-09T07:56:37;16.40;99.90
68813;DHT22;55808;48.112;11.552;2022-09-09T07:59:04;16.40;99.90
68813;DHT22;55808;48.112;11.552;2022-09-09T08:01:45;16.40;99.90
68813;DHT22;55808;48.112;11.552;2022-09-09T08:04:17;16.50;99.90
68813;DHT22;55808;48.112;11.552;2022-09-09T08:06:49;16.50;99.90
68813;DHT22;55808;48.112;11.552;2022-09-09T08:09:15;16.50;99.90
68813;DHT22;55808;48.112;11.552;2022-09-09T08:11:42;16.60;99.90
68813;DHT22;55808;48.112;11.552;2022-09-09T08:14:09;16.70;99.90
68813;DHT22;55808;48.112;11.552;2022-09-09T08:16:38;16.70;99.90
68813;DHT22;55808;48.112;11.552;2022-09-09T08:19:04;16.70;99.90
68813;DHT22;55808;48.112;11.552;2022-09-09T08:21:33;16.80;99.90
68813;DHT22;55808;48.112;11.552;2022-09-09T08:24:00;16.80;99.90
68813;DHT22;55808;48.112;11.552;2022-09-09T08:26:29;16.80;99.90
68813;DHT22;55808;48.112;11.552;2022-09-09T08:28:56;16.80;99.90
68813;DHT22;55808;48.112;11.552;2022-09-09T08:31:25;16.90;99.90
68813;DHT22;55808;48.112;11.552;2022-09-09T08:33:51;17.00;99.90
68813;DHT22;55808;48.112;11.552;2022-09-09T08:36:19;17.10;99.90
68813;DHT22;55808;48.112;11.552;2022-09-09T08:38:49;17.10;99.90
68813;DHT22;55808;48.112;11.552;2022-09-09T08:42:08;17.00;99.90
68813;DHT22;55808;48.112;11.552;2022-09-09T08:46:51;16.80;99.90
68813;DHT22;55808;48.112;11.552;2022-09-09T08:49:55;16.80;99.90
68813;DHT22;55808;48.112;11.552;2022-09-09T08:54:53;16.70;99.90
68813;DHT22;55808;48.112;11.552;2022-09-09T08:57:25;16.70;99.90
68813;DHT22;55808;48.112;11.552;2022-09-09T08:59:54;16.60;99.90
68813;DHT22;55808;48.112;11.552;2022-09-09T09:05:42;16.80;99.90
68813;DHT22;55808;48.112;11.552;2022-09-09T09:08:30;16.80;99.90
68813;DHT22;55808;48.112;11.552;2022-09-09T09:10:58;16.80;99.90
68813;DHT22;55808;48.112;11.552;2022-09-09T09:13:39;16.80;99.90
68813;DHT22;55808;48.112;11.552;2022-09-09T09:18:37;16.80;99.90
68813;DHT22;55808;48.112;11.552;2022-09-09T09:21:16;16.80;99.90
68813;DHT22;55808;48.112;11.552;2022-09-09T09:24:05;16.90;99.90
68813;DHT22;55808;48.112;11.552;2022-09-09T09:26:34;17.10;99.90
68813;DHT22;55808;48.112;11.552;2022-09-09T09:29:12;17.30;99.90
68813;DHT22;55808;48.112;11.552;2022-09-09T09:31:38;17.50;99.90
68813;DHT22;55808;48.112;11.552;2022-09-09T09:34:04;17.60;99.90
68813;DHT22;55808;48.112;11.552;2022-09-09T09:36:40;17.60;99.90
68813;DHT22;55808;48.112;11.552;2022-09-09T09:39:07;17.50;99.90
68813;DHT22;55808;48.112;11.552;2022-09-09T09:41:38;17.40;99.90
68813;DHT22;55808;48.112;11.552;2022-09-09T09:44:18;17.50;99.90
68813;DHT22;55808;48.112;11.552;2022-09-09T09:46:46;17.50;99.90
68813;DHT22;55808;48.112;11.552;2022-09-09T09:49:12;17.50;99.90
68813;DHT22;55808;48.112;11.552;2022-09-09T09:51:39;17.40;99.90
68813;DHT22;55808;48.112;11.552;2022-09-09T09:56:45;17.40;99.90
68813;DHT22;55808;48.112;11.552;2022-09-09T09:59:39;17.40;99.90
68813;DHT22;55808;48.112;11.552;2022-09-09T10:04:43;17.30;99.90
68813;DHT22;55808;48.112;11.552;2022-09-09T10:07:21;17.20;99.90
68813;DHT22;55808;48.112;11.552;2022-09-09T10:09:53;17.20;99.90
68813;DHT22;55808;48.112;11.552;2022-09-09T10:15:24;17.10;99.90
68813;DHT22;55808;48.112;11.552;2022-09-09T10:21:07;17.00;99.90
68813;DHT22;55808;48.112;11.552;2022-09-09T10:24:07;17.00;99.90
68813;DHT22;55808;48.112;11.552;2022-09-09T10:35:11;16.80;99.90
68813;DHT22;55808;48.112;11.552;2022-09-09T10:40:38;16.80;99.90
68813;DHT22;55808;48.112;11.552;2022-09-09T10:48:30;16.90;99.90
68813;DHT22;55808;48.112;11.552;2022-09-09T10:56:20;16.80;99.90
68813;DHT22;55808;48.112;11.552;2022-09-09T11:01:25;17.10;99.90
68813;DHT22;55808;48.112;11.552;2022-09-09T11:04:09;17.30;99.90
68813;DHT22;55808;48.112;11.552;2022-09-09T11:06:42;17.50;99.90
68813;DHT22;55808;48.112;11.552;2022-09-09T11:09:23;17.50;99.90
68813;DHT22;55808;48.112;11.552;2022-09-09T11:11:57;17.60;99.90
68813;DHT22;55808;48.112;11.552;2022-09-09T11:14:43;17.70;99.90
68813;DHT22;55808;48.112;11.552;2022-09-09T11:17:16;17.80;99.90
68813;DHT22;55808;48.112;11.552;2022-09-09T11:19:44;18.00;99.90
68813;DHT22;55808;48.112;11.552;2022-09-09T11:22:37;18.30;99.60
68813;DHT22;55808;48.112;11.552;2022-09-09T11:25:23;18.40;99.90
68813;DHT22;55808;48.112;11.552;2022-09-09T11:28:01;18.50;99.90
68813;DHT22;55808;48.112;11.552;2022-09-09T11:33:28;18.80;99.90
68813;DHT22;55808;48.112;11.552;2022-09-09T11:38:47;19.10;96.50
68813;DHT22;55808;48.112;11.552;2022-09-09T11:41:14;19.00;97.20
68813;DHT22;55808;48.112;11.552;2022-09-09T11:43:49;18.90;97.00
68813;DHT22;55808;48.112;11.552;2022-09-09T11:46:22;18.80;96.60
68813;DHT22;55808;48.112;11.552;2022-09-09T11:49:00;18.80;97.00
68813;DHT22;55808;48.112;11.552;2022-09-09T11:51:28;18.80;96.20
68813;DHT22;55808;48.112;11.552;2022-09-09T11:56:44;18.40;95.00
68813;DHT22;55808;48.112;11.552;2022-09-09T11:59:24;18.40;95.40
68813;DHT22;55808;48.112;11.552;2022-09-09T12:02:24;18.70;95.30
68813;DHT22;55808;48.112;11.552;2022-09-09T12:04:57;19.00;95.20
68813;DHT22;55808;48.112;11.552;2022-09-09T12:12:36;18.60;94.90
68813;DHT22;55808;48.112;11.552;2022-09-09T12:17:45;18.40;94.20
68813;DHT22;55808;48.112;11.552;2022-09-09T12:20:18;18.50;94.30
68813;DHT22;55808;48.112;11.552;2022-09-09T12:28:51;18.80;96.10
68813;DHT22;55808;48.112;11.552;2022-09-09T12:34:19;18.70;95.20
68813;DHT22;55808;48.112;11.552;2022-09-09T12:37:02;18.80;94.90
68813;DHT22;55808;48.112;11.552;2022-09-09T12:39:38;18.80;94.70
68813;DHT22;55808;48.112;11.552;2022-09-09T12:42:16;18.80;94.80
68813;DHT22;55808;48.112;11.552;2022-09-09T12:45:00;18.90;94.90
68813;DHT22;55808;48.112;11.552;2022-09-09T12:47:42;19.40;94.50
68813;DHT22;55808;48.112;11.552;2022-09-09T12:50:46;19.80;92.80
68813;DHT22;55808;48.112;11.552;2022-09-09T12:53:25;19.80;93.40
68813;DHT22;55808;48.112;11.552;2022-09-09T12:58:23;19.60;93.40
68813;DHT22;55808;48.112;11.552;2022-09-09T13:00:51;19.40;92.60
68813;DHT22;55808;48.112;11.552;2022-09-09T13:03:19;19.10;93.10
68813;DHT22;55808;48.112;11.552;2022-09-09T13:05:46;18.90;93.50
68813;DHT22;55808;48.112;11.552;2022-09-09T13:08:14;18.80;93.60
68813;DHT22;55808;48.112;11.552;2022-09-09T13:10:44;18.80;93.50
68813;DHT22;55808;48.112;11.552;2022-09-09T13:13:17;18.80;94.30
68813;DHT22;55808;48.112;11.552;2022-09-09T13:15:54;18.70;94.30
68813;DHT22;55808;48.112;11.552;2022-09-09T13:18:27;18.80;93.70
68813;DHT22;55808;48.112;11.552;2022-09-09T13:20:54;18.90;94.20
68813;DHT22;55808;48.112;11.552;2022-09-09T13:23:21;18.80;94.20
68813;DHT22;55808;48.112;11.552;2022-09-09T13:25:56;18.80;93.20
68813;DHT22;55808;48.112;11.552;2022-09-09T13:28:25;18.80;93.70
68813;DHT22;55808;48.112;11.552;2022-09-09T13:30:59;18.80;93.90
68813;DHT22;55808;48.112;11.552;2022-09-09T13:33:36;18.80;94.60
68813;DHT22;55808;48.112;11.552;2022-09-09T13:36:07;18.80;93.30
68813;DHT22;55808;48.112;11.552;2022-09-09T13:38:54;18.70;94.00
68813;DHT22;55808;48.112;11.552;2022-09-09T13:41:22;18.60;92.80
68813;DHT22;55808;48.112;11.552;2022-09-09T13:43:49;18.80;93.50
68813;DHT22;55808;48.112;11.552;2022-09-09T13:49:02;18.80;93.20
68813;DHT22;55808;48.112;11.552;2022-09-09T13:51:39;18.60;93.20
68813;DHT22;55808;48.112;11.552;2022-09-09T13:54:05;18.50;93.30
68813;DHT22;55808;48.112;11.552;2022-09-09T13:56:33;18.30;94.50
68813;DHT22;55808;48.112;11.552;2022-09-09T13:59:01;18.10;94.60
68813;DHT22;55808;48.112;11.552;2022-09-09T14:01:27;18.10;94.50
68813;DHT22;55808;48.112;11.552;2022-09-09T14:03:53;18.00;94.90
68813;DHT22;55808;48.112;11.552;2022-09-09T14:06:19;18.10;95.30
68813;DHT22;55808;48.112;11.552;2022-09-09T14:08:47;18.00;95.10
68813;DHT22;55808;48.112;11.552;2022-09-09T14:11:13;18.00;93.90
68813;DHT22;55808;48.112;11.552;2022-09-09T14:13:39;18.10;95.40
68813;DHT22;55808;48.112;11.552;2022-09-09T14:16:07;18.10;95.00
68813;DHT22;55808;48.112;11.552;2022-09-09T14:18:33;18.10;94.60
68813;DHT22;55808;48.112;11.552;2022-09-09T14:20:59;18.20;94.90
68813;DHT22;55808;48.112;11.552;2022-09-09T14:23:27;18.30;94.40
68813;DHT22;55808;48.112;11.552;2022-09-09T14:25:54;18.30;94.50
68813;DHT22;55808;48.112;11.552;2022-09-09T14:28:20;18.40;94.90
68813;DHT22;55808;48.112;11.552;2022-09-09T14:30:45;18.30;94.70
68813;DHT22;55808;48.112;11.552;2022-09-09T14:33:15;18.10;94.60
68813;DHT22;55808;48.112;11.552;2022-09-09T14:35:42;17.90;95.20
68813;DHT22;55808;48.112;11.552;2022-09-09T14:38:09;17.90;95.20
68813;DHT22;55808;48.112;11.552;2022-09-09T14:40:36;17.90;95.20
68813;DHT22;55808;48.112;11.552;2022-09-09T14:43:06;17.80;95.20
68813;DHT22;55808;48.112;11.552;2022-09-09T14:45:32;17.80;95.10
68813;DHT22;55808;48.112;11.552;2022-09-09T14:47:57;17.80;94.70
68813;DHT22;55808;48.112;11.552;2022-09-09T14:50:24;17.90;95.20
68813;DHT22;55808;48.112;11.552;2022-09-09T14:52:50;17.90;94.20
68813;DHT22;55808;48.112;11.552;2022-09-09T14:55:16;17.90;93.70
68813;DHT22;55808;48.112;11.552;2022-09-09T14:57:42;17.80;94.10
68813;DHT22;55808;48.112;11.552;2022-09-09T15:00:09;17.80;93.80
68813;DHT22;55808;48.112;11.552;2022-09-09T15:02:35;17.80;94.00
68813;DHT22;55808;48.112;11.552;2022-09-09T15:05:04;17.90;93.50
68813;DHT22;55808;48.112;11.552;2022-09-09T15:07:30;17.90;94.00
68813;DHT22;55808;48.112;11.552;2022-09-09T15:09:57;18.00;94.00
68813;DHT22;55808;48.112;11.552;2022-09-09T15:12:23;18.00;93.70
68813;DHT22;55808;48.112;11.552;2022-09-09T15:14:49;18.00;92.90
68813;DHT22;55808;48.112;11.552;2022-09-09T15:17:16;18.00;93.90
68813;DHT22;55808;48.112;11.552;2022-09-09T15:19:41;17.90;93.40
68813;DHT22;55808;48.112;11.552;2022-09-09T15:22:08;17.80;93.20
68813;DHT22;55808;48.112;11.552;2022-09-09T15:24:34;17.70;93.40
68813;DHT22;55808;48.112;11.552;2022-09-09T15:27:01;17.70;93.40
68813;DHT22;55808;48.112;11.552;2022-09-09T15:29:27;17.70;93.70
68813;DHT22;55808;48.112;11.552;2022-09-09T15:31:55;17.70;93.50
68813;DHT22;55808;48.112;11.552;2022-09-09T15:34:22;17.70;93.30
68813;DHT22;55808;48.112;11.552;2022-09-09T15:36:48;17.70;94.00
68813;DHT22;55808;48.112;11.552;2022-09-09T15:39:15;17.70;93.40
68813;DHT22;55808;48.112;11.552;2022-09-09T15:41:42;17.80;93.70
68813;DHT22;55808;48.112;11.552;2022-09-09T15:44:09;17.90;93.30
68813;DHT22;55808;48.112;11.552;2022-09-09T15:49:13;18.50;92.30
68813;DHT22;55808;48.112;11.552;2022-09-09T15:51:41;18.30;94.50
68813;DHT22;55808;48.112;11.552;2022-09-09T15:54:09;18.50;97.10
68813;DHT22;55808;48.112;11.552;2022-09-09T15:56:35;18.30;95.30
68813;DHT22;55808;48.112;11.552;2022-09-09T15:59:01;18.10;94.60
68813;DHT22;55808;48.112;11.552;2022-09-09T16:01:29;17.90;95.90
68813;DHT22;55808;48.112;11.552;2022-09-09T16:03:56;17.70;95.00
68813;DHT22;55808;48.112;11.552;2022-09-09T16:06:23;17.60;94.60
68813;DHT22;55808;48.112;11.552;2022-09-09T16:08:51;17.50;95.00
68813;DHT22;55808;48.112;11.552;2022-09-09T16:11:23;17.50;95.30
68813;DHT22;55808;48.112;11.552;2022-09-09T16:13:50;17.50;95.00
68813;DHT22;55808;48.112;11.552;2022-09-09T16:16:18;17.60;95.40
68813;DHT22;55808;48.112;11.552;2022-09-09T16:18:47;18.10;94.30
68813;DHT22;55808;48.112;11.552;2022-09-09T16:21:30;18.50;95.10
68813;DHT22;55808;48.112;11.552;2022-09-09T16:23:58;18.70;92.70
68813;DHT22;55808;48.112;11.552;2022-09-09T16:26:27;19.00;92.20
68813;DHT22;55808;48.112;11.552;2022-09-09T16:28:53;19.30;92.20
68813;DHT22;55808;48.112;11.552;2022-09-09T16:31:24;19.40;91.90
68813;DHT22;55808;48.112;11.552;2022-09-09T16:33:51;19.20;90.60
68813;DHT22;55808;48.112;11.552;2022-09-09T16:36:20;19.10;91.30
68813;DHT22;55808;48.112;11.552;2022-09-09T16:38:45;18.90;90.50
68813;DHT22;55808;48.112;11.552;2022-09-09T16:41:12;18.90;90.10
68813;DHT22;55808;48.112;11.552;2022-09-09T16:43:39;18.60;90.50
68813;DHT22;55808;48.112;11.552;2022-09-09T16:46:16;18.60;90.60
68813;DHT22;55808;48.112;11.552;2022-09-09T16:48:43;18.60;90.90
68813;DHT22;55808;48.112;11.552;2022-09-09T16:53:43;18.50;89.80
68813;DHT22;55808;48.112;11.552;2022-09-09T16:56:13;18.40;91.00
68813;DHT22;55808;48.112;11.552;2022-09-09T16:58:39;18.40;90.40
68813;DHT22;55808;48.112;11.552;2022-09-09T17:01:05;18.40;90.60
68813;DHT22;55808;48.112;11.552;2022-09-09T17:03:31;18.30;90.40
68813;DHT22;55808;48.112;11.552;2022-09-09T17:05:58;18.20;90.70
68813;DHT22;55808;48.112;11.552;2022-09-09T17:08:30;18.20;91.50
68813;DHT22;55808;48.112;11.552;2022-09-09T17:10:57;18.20;91.30
68813;DHT22;55808;48.112;11.552;2022-09-09T17:13:23;18.00;91.30
68813;DHT22;55808;48.112;11.552;2022-09-09T17:15:49;17.90;91.40
68813;DHT22;55808;48.112;11.552;2022-09-09T17:18:15;17.70;91.50
68813;DHT22;55808;48.112;11.552;2022-09-09T17:20:42;17.50;92.10
68813;DHT22;55808;48.112;11.552;2022-09-09T17:23:10;17.30;92.40
68813;DHT22;55808;48.112;11.552;2022-09-09T17:25:37;17.20;92.90
68813;DHT22;55808;48.112;11.552;2022-09-09T17:28:04;17.10;93.20